Time;durP1;ratioP1;P1;durP2;ratioP2;P2;SDS_P1;SDS_P2;PMS_P1;PMS_P2;Temp;Humidity;BMP_temperature;BMP_pressure;BME280_temperature;BME280_humidity;BME280_pressure;Samples;Min_cycle;Max_cycle;Signal;HPM_P1;HPM_P2
2021/09/20 00:02:25;;;;;;;4.43;2.00;;;;;;;4.93;88.99;100033.72;6211938;23;20082;-74
2021/09/20 00:05:11;;;;;;;1.10;1.10;;;;;;;4.93;89.44;100012.16;6168927;23;20013;-74
2021/09/20 00:07:57;;;;;;;2.05;1.95;;;;;;;4.93;89.35;100025.97;6189192;23;20506;-73
2021/09/20 00:10:43;;;;;;;1.75;1.75;;;;;;;4.95;89.05;100025.91;6211563;23;20020;-78
2021/09/20 00:13:28;;;;;;;2.60;2.17;;;;;;;4.93;89.02;100017.34;6189741;23;20094;-74
2021/09/20 00:16:14;;;;;;;10.40;4.97;;;;;;;4.94;89.53;100042.34;6211107;23;20522;-74
2021/09/20 00:19:00;;;;;;;1.08;1.08;;;;;;;4.95;89.24;100013.81;6210788;23;20040;-74
2021/09/20 00:21:26;;;;;;;3.50;1.95;;;;;;;4.94;88.94;100017.28;6211482;23;20055;-74
2021/09/20 00:23:52;;;;;;;1.42;1.42;;;;;;;4.92;88.85;100034.59;6210923;23;20020;-76
2021/09/20 00:26:18;;;;;;;1.48;1.48;;;;;;;4.95;88.83;100031.91;6184899;23;20451;-75
2021/09/20 00:28:44;;;;;;;1.98;1.88;;;;;;;4.94;89.46;100017.28;6210992;23;20474;-74
2021/09/20 00:31:10;;;;;;;2.83;2.65;;;;;;;4.96;89.11;100010.34;6210947;23;20095;-74
2021/09/20 00:33:37;;;;;;;2.47;2.28;;;;;;;4.94;89.24;99994.00;6211499;23;20019;-72
2021/09/20 00:36:03;;;;;;;2.70;2.58;;;;;;;4.95;89.10;99990.53;6210036;23;20020;-73
2021/09/20 00:38:29;;;;;;;2.05;1.95;;;;;;;4.91;89.29;99995.88;6211737;23;20395;-73
2021/09/20 00:41:15;;;;;;;2.60;2.40;;;;;;;4.92;89.53;99988.03;6211396;23;20024;-73
2021/09/20 00:44:02;;;;;;;3.08;2.78;;;;;;;4.96;89.23;99997.41;6211283;23;20463;-74
2021/09/20 00:46:48;;;;;;;1.33;1.33;;;;;;;4.95;89.36;100003.47;6211266;23;20020;-75
2021/09/20 00:49:34;;;;;;;2.20;2.10;;;;;;;4.96;89.20;100014.66;6211425;23;20084;-76
2021/09/20 00:52:20;;;;;;;2.55;2.30;;;;;;;5.00;88.50;100001.59;6211361;23;20016;-75
2021/09/20 00:55:06;;;;;;;1.65;1.58;;;;;;;5.00;88.17;100017.13;6188781;23;20103;-76
2021/09/20 00:57:52;;;;;;;1.75;1.65;;;;;;;4.98;89.30;99997.34;6189481;23;20013;-75
2021/09/20 01:00:38;;;;;;;2.97;1.60;;;;;;;4.99;88.76;99989.56;6189553;23;20056;-75
2021/09/20 01:03:23;;;;;;;1.33;1.33;;;;;;;4.94;89.03;99991.41;6211404;23;20020;-74
2021/09/20 01:06:09;;;;;;;2.75;2.55;;;;;;;4.96;88.85;99984.47;6211019;23;20041;-74
2021/09/20 01:08:55;;;;;;;1.33;1.33;;;;;;;4.94;88.97;99996.59;6189077;23;20028;-75
2021/09/20 01:11:42;;;;;;;3.78;3.58;;;;;;;4.92;89.27;99980.28;6189187;23;20020;-72
2021/09/20 01:14:28;;;;;;;1.98;1.88;;;;;;;4.97;89.00;100006.88;6147741;23;20017;-74
2021/09/20 01:17:14;;;;;;;1.67;1.67;;;;;;;4.96;89.17;100002.59;6211440;23;20408;-75
2021/09/20 01:20:00;;;;;;;1.65;1.65;;;;;;;4.98;88.40;100023.22;6210998;23;20095;-74
2021/09/20 01:22:46;;;;;;;1.75;1.65;;;;;;;4.96;88.60;99984.47;6211570;23;20096;-74
2021/09/20 01:25:32;;;;;;;1.13;1.13;;;;;;;4.92;89.12;99988.03;6168558;23;20016;-74
2021/09/20 01:28:18;;;;;;;2.78;2.63;;;;;;;4.92;88.61;99989.78;6211111;23;20028;-73
2021/09/20 01:31:03;;;;;;;1.50;1.50;;;;;;;4.91;89.12;99976.00;6210912;23;20487;-74
2021/09/20 01:33:49;;;;;;;2.00;1.92;;;;;;;4.89;88.95;99984.69;6211156;23;20032;-74
2021/09/20 01:36:35;;;;;;;1.10;1.10;;;;;;;4.90;88.53;100014.84;6168476;23;20063;-77
2021/09/20 01:39:22;;;;;;;1.35;1.35;;;;;;;4.88;88.79;99990.75;6211185;23;20044;-76
2021/09/20 01:42:08;;;;;;;1.38;1.38;;;;;;;4.89;89.68;99987.28;6188956;23;20017;-77
2021/09/20 01:44:54;;;;;;;2.30;2.20;;;;;;;4.89;89.23;100011.41;6218046;23;20047;-74
2021/09/20 01:47:40;;;;;;;1.38;1.27;;;;;;;4.88;89.12;99964.88;6211542;23;20024;-73
2021/09/20 01:50:26;;;;;;;1.80;1.70;;;;;;;4.87;89.15;99989.09;6189071;23;20025;-75
2021/09/20 01:53:13;;;;;;;0.95;0.95;;;;;;;4.86;88.91;99988.22;6188782;23;20023;-75
2021/09/20 01:55:59;;;;;;;2.00;1.70;;;;;;;4.84;89.45;99971.91;6168161;23;20063;-73
2021/09/20 01:58:44;;;;;;;1.70;1.70;;;;;;;4.86;88.87;99975.28;6211630;23;20460;-73
2021/09/20 02:01:30;;;;;;;9.05;3.28;;;;;;;4.85;89.41;99968.41;6190640;23;20023;-74
2021/09/20 02:04:16;;;;;;;1.15;1.15;;;;;;;4.86;89.44;99971.84;6212958;23;20163;-74
2021/09/20 02:07:02;;;;;;;2.53;2.40;;;;;;;4.86;89.44;99983.06;6213684;23;20025;-75
2021/09/20 02:09:48;;;;;;;2.70;1.50;;;;;;;4.90;89.26;99945.88;6212977;23;20048;-75
2021/09/20 02:12:34;;;;;;;1.23;1.23;;;;;;;4.89;88.85;99975.19;6190758;23;20055;-74
2021/09/20 02:15:20;;;;;;;1.30;1.30;;;;;;;4.83;89.21;99959.88;6212650;23;20017;-73
2021/09/20 02:18:05;;;;;;;1.95;1.27;;;;;;;4.86;89.29;99946.84;6212506;23;20020;-73
2021/09/20 02:20:52;;;;;;;2.35;2.22;;;;;;;4.85;88.73;99960.66;6212375;23;20128;-73
2021/09/20 02:23:37;;;;;;;1.63;1.58;;;;;;;4.95;88.82;99981.91;6212835;23;20024;-74
2021/09/20 02:26:23;;;;;;;1.55;1.55;;;;;;;4.91;88.79;99965.66;6212452;23;20032;-74
2021/09/20 02:29:09;;;;;;;0.85;0.85;;;;;;;4.89;89.49;99961.41;6169831;23;20020;-73
2021/09/20 02:31:55;;;;;;;1.00;1.00;;;;;;;4.91;88.33;99952.72;6212446;23;20028;-75
2021/09/20 02:34:41;;;;;;;2.08;1.98;;;;;;;4.90;89.20;99940.69;6212447;23;20138;-74
2021/09/20 02:37:26;;;;;;;1.77;1.67;;;;;;;4.89;88.88;99964.84;6212543;23;20024;-74
2021/09/20 02:40:12;;;;;;;1.02;1.02;;;;;;;4.90;89.45;99969.16;6212041;23;20563;-74
2021/09/20 02:42:58;;;;;;;1.38;1.38;;;;;;;4.90;88.91;99958.81;6212429;23;20020;-74
2021/09/20 02:45:44;;;;;;;0.98;0.98;;;;;;;4.88;89.15;99952.81;6212532;23;20135;-73
2021/09/20 02:48:30;;;;;;;0.68;0.68;;;;;;;4.95;89.29;99972.44;6212519;23;20084;-76
2021/09/20 02:51:16;;;;;;;3.05;2.72;;;;;;;4.87;88.67;99958.03;6212190;23;20024;-75
2021/09/20 02:54:02;;;;;;;1.23;1.23;;;;;;;4.90;89.03;99958.81;6212083;23;20028;-74
2021/09/20 02:56:48;;;;;;;0.70;0.70;;;;;;;4.94;89.52;99964.72;6212436;23;20099;-74
2021/09/20 02:59:34;;;;;;;1.77;1.15;;;;;;;4.92;89.32;99959.59;6190259;23;20027;-74
2021/09/20 03:02:20;;;;;;;1.10;1.10;;;;;;;4.93;89.27;99974.22;6206902;23;20023;-74
2021/09/20 03:05:06;;;;;;;2.90;2.70;;;;;;;4.83;88.71;99957.28;6211748;23;20036;-75
2021/09/20 03:07:52;;;;;;;1.52;1.52;;;;;;;4.90;89.84;99974.31;6189797;23;20456;-75
2021/09/20 03:10:38;;;;;;;1.75;1.25;;;;;;;4.87;89.00;99966.66;6211798;23;20024;-73
2021/09/20 03:13:24;;;;;;;1.35;1.35;;;;;;;4.89;89.20;100014.00;6211652;23;20023;-74
2021/09/20 03:16:10;;;;;;;3.83;1.88;;;;;;;4.92;89.57;99982.88;6211572;23;20476;-75
2021/09/20 03:18:55;;;;;;;0.90;0.90;;;;;;;4.91;89.58;99977.75;6188817;23;20027;-76
2021/09/20 03:21:41;;;;;;;2.08;1.98;;;;;;;4.93;89.82;99973.38;6211641;23;20051;-75
2021/09/20 03:24:27;;;;;;;0.63;0.63;;;;;;;4.90;89.76;99984.66;6212069;23;20532;-75
2021/09/20 03:27:14;;;;;;;1.48;1.45;;;;;;;4.90;89.74;99973.47;6211834;23;20075;-72
2021/09/20 03:30:00;;;;;;;1.25;1.25;;;;;;;4.90;89.59;99995.00;6211363;23;20478;-71
2021/09/20 03:32:46;;;;;;;0.82;0.82;;;;;;;4.89;89.52;99980.38;6211924;23;20021;-72
2021/09/20 03:35:32;;;;;;;0.70;0.70;;;;;;;4.87;89.88;99969.25;6211726;23;20099;-73
2021/09/20 03:38:18;;;;;;;0.95;0.95;;;;;;;4.89;89.66;99993.31;6211831;23;20020;-72
2021/09/20 03:41:03;;;;;;;0.93;0.93;;;;;;;4.89;89.72;99985.56;6211570;23;20021;-72
2021/09/20 03:43:49;;;;;;;1.05;1.05;;;;;;;4.89;90.32;99977.78;6211812;23;20020;-74
2021/09/20 03:46:36;;;;;;;1.15;1.15;;;;;;;4.86;90.11;99967.53;6211719;23;20020;-75
2021/09/20 03:49:22;;;;;;;1.30;1.20;;;;;;;4.92;90.16;99989.78;6190157;23;20479;-76
2021/09/20 03:52:07;;;;;;;1.80;1.70;;;;;;;4.91;90.06;99960.47;6212338;23;20024;-75
2021/09/20 03:54:53;;;;;;;0.40;0.40;;;;;;;4.88;89.97;99963.16;6212059;23;20032;-76
2021/09/20 03:57:39;;;;;;;1.17;1.17;;;;;;;4.90;90.10;99976.06;6211050;23;20032;-74
2021/09/20 04:00:25;;;;;;;1.13;1.13;;;;;;;4.91;90.15;99963.06;6148128;23;20056;-75
2021/09/20 04:03:10;;;;;;;14.60;1.13;;;;;;;4.93;89.92;99963.88;6211130;23;20027;-74
2021/09/20 04:05:56;;;;;;;1.25;1.25;;;;;;;4.95;89.91;99971.56;6210880;23;20020;-75
2021/09/20 04:08:42;;;;;;;2.10;2.00;;;;;;;4.95;90.07;99977.59;6189089;23;20456;-74
2021/09/20 04:11:29;;;;;;;1.15;1.15;;;;;;;4.92;89.86;99975.09;6211195;23;20095;-75
2021/09/20 04:14:14;;;;;;;1.00;0.95;;;;;;;4.90;89.87;99991.56;6189347;23;20017;-76
2021/09/20 04:17:00;;;;;;;0.60;0.60;;;;;;;4.95;89.83;99980.19;6210857;23;20024;-75
2021/09/20 04:19:46;;;;;;;1.15;1.15;;;;;;;4.95;89.91;99982.78;6179635;23;20043;-74
2021/09/20 04:22:32;;;;;;;1.50;1.40;;;;;;;4.94;89.66;99957.78;6159391;23;20052;-75
2021/09/20 04:25:18;;;;;;;1.10;1.10;;;;;;;4.94;90.42;99990.59;6159001;23;20017;-75
2021/09/20 04:28:04;;;;;;;1.23;1.20;;;;;;;4.93;89.65;99991.47;6159529;23;20028;-76
2021/09/20 04:30:50;;;;;;;1.73;1.63;;;;;;;4.94;89.83;100009.53;6159573;23;20456;-76
2021/09/20 04:33:36;;;;;;;2.25;2.05;;;;;;;4.95;90.14;99977.59;6181606;23;20024;-73
2021/09/20 04:36:21;;;;;;;0.90;0.90;;;;;;;4.94;89.85;99986.25;6181422;23;20086;-75
2021/09/20 04:39:08;;;;;;;2.83;2.63;;;;;;;4.94;90.03;99969.91;6180790;23;20405;-74
2021/09/20 04:41:53;;;;;;;1.45;1.45;;;;;;;4.96;89.95;99979.31;6180319;23;20388;-74
2021/09/20 04:44:39;;;;;;;1.13;1.13;;;;;;;4.95;90.16;99980.19;6181578;23;20021;-74
2021/09/20 04:47:25;;;;;;;1.00;1.00;;;;;;;4.96;90.08;100005.16;6159656;23;20048;-73
2021/09/20 04:50:11;;;;;;;1.05;1.05;;;;;;;4.95;90.21;99972.44;6180232;23;20017;-75
2021/09/20 04:52:57;;;;;;;0.93;0.93;;;;;;;4.96;89.35;100001.72;6179706;23;20017;-75
2021/09/20 04:55:43;;;;;;;1.50;1.42;;;;;;;4.98;89.52;99998.19;6181358;23;20028;-75
2021/09/20 04:58:29;;;;;;;1.00;1.00;;;;;;;5.00;90.40;100011.94;6181572;23;20056;-75
2021/09/20 05:01:15;;;;;;;0.52;0.52;;;;;;;5.00;90.09;99998.16;6181329;23;20033;-77
2021/09/20 05:04:01;;;;;;;1.27;1.27;;;;;;;5.00;89.85;99980.91;6181151;23;20017;-75
2021/09/20 05:06:47;;;;;;;1.17;1.17;;;;;;;5.02;90.30;99992.03;6181309;23;20083;-75
2021/09/20 05:09:33;;;;;;;1.58;1.48;;;;;;;5.02;89.84;100010.16;6179947;23;20025;-74
2021/09/20 05:12:19;;;;;;;1.77;1.33;;;;;;;5.04;90.47;99994.59;6179453;23;20349;-75
2021/09/20 05:14:45;;;;;;;1.48;1.48;;;;;;;5.01;90.03;99998.09;6179274;23;20044;-76
2021/09/20 05:17:11;;;;;;;0.70;0.70;;;;;;;5.06;89.65;99982.47;6178952;23;20099;-77
2021/09/20 05:19:38;;;;;;;1.40;1.40;;;;;;;5.06;89.80;100000.56;6154655;23;20020;-76
2021/09/20 05:22:08;;;;;;;2.10;2.00;;;;;;;5.08;89.59;100014.28;6130256;23;20017;-73
2021/09/20 05:24:34;;;;;;;0.95;0.95;;;;;;;5.10;89.57;99995.28;6181344;23;20028;-74
2021/09/20 05:27:23;;;;;;;0.50;0.50;;;;;;;5.11;90.18;100002.13;6181128;23;20028;-74
2021/09/20 05:30:12;;;;;;;1.08;1.08;;;;;;;5.08;89.67;99989.28;6161070;23;20021;-74
2021/09/20 05:33:00;;;;;;;1.70;1.60;;;;;;;5.08;89.40;99973.75;6179520;23;20025;-74
2021/09/20 05:35:26;;;;;;;0.70;0.70;;;;;;;5.12;90.10;99990.88;6182803;23;20020;-74
2021/09/20 05:37:55;;;;;;;1.13;1.10;;;;;;;5.15;89.96;100027.00;6157761;23;20513;-74
2021/09/20 05:40:25;;;;;;;1.05;1.05;;;;;;;5.15;89.74;100006.31;6181248;23;20081;-73
2021/09/20 05:42:59;;;;;;;1.33;1.33;;;;;;;5.17;89.53;100017.44;6182725;23;20772;-75
2021/09/20 05:45:25;;;;;;;0.90;0.90;;;;;;;5.16;89.83;99999.41;6158336;23;20017;-74
2021/09/20 05:47:51;;;;;;;0.95;0.95;;;;;;;5.13;89.58;100008.09;6183350;23;20043;-73
2021/09/20 05:50:19;;;;;;;1.50;1.40;;;;;;;5.20;89.71;99999.25;6181253;23;20021;-73
2021/09/20 05:52:46;;;;;;;1.90;1.80;;;;;;;5.19;89.83;100000.16;6180698;23;20040;-73
2021/09/20 05:55:13;;;;;;;1.50;1.40;;;;;;;5.19;89.94;100013.09;6181130;23;20017;-75
2021/09/20 05:57:39;;;;;;;2.10;2.00;;;;;;;5.21;89.99;99998.34;6182849;23;20024;-74
2021/09/20 06:00:07;;;;;;;1.27;1.25;;;;;;;5.22;89.86;100000.06;6182361;23;20028;-75
2021/09/20 06:02:38;;;;;;;1.42;1.40;;;;;;;5.25;89.43;99987.03;6157464;23;20021;-76
2021/09/20 06:05:04;;;;;;;1.10;1.10;;;;;;;5.27;90.19;100028.38;6181484;23;20078;-75
2021/09/20 06:07:30;;;;;;;1.15;1.15;;;;;;;5.27;89.67;100009.44;6182197;23;20021;-74
2021/09/20 06:09:56;;;;;;;1.55;1.48;;;;;;;5.30;89.21;100035.22;6174600;23;20025;-76
2021/09/20 06:12:22;;;;;;;1.17;1.17;;;;;;;5.28;89.25;99996.41;6177799;23;20036;-75
2021/09/20 06:14:48;;;;;;;1.08;1.08;;;;;;;5.32;89.86;99989.41;6179770;23;20108;-75
2021/09/20 06:17:14;;;;;;;1.10;1.10;;;;;;;5.34;89.67;100018.66;6179702;23;20701;-74
2021/09/20 06:19:40;;;;;;;1.58;1.58;;;;;;;5.29;89.44;99989.50;6207170;23;20059;-76
2021/09/20 06:22:06;;;;;;;0.70;0.70;;;;;;;5.32;89.05;100043.75;6158287;23;20020;-74
2021/09/20 06:24:32;;;;;;;1.33;1.33;;;;;;;5.37;89.14;99992.69;6184974;23;20475;-77
2021/09/20 06:26:58;;;;;;;0.90;0.90;;;;;;;5.37;89.57;100021.16;6184016;23;20044;-75
2021/09/20 06:29:24;;;;;;;1.27;1.27;;;;;;;5.38;89.34;100012.50;6211367;23;20024;-74
2021/09/20 06:31:51;;;;;;;0.57;0.57;;;;;;;5.37;89.44;99997.88;6184385;23;20021;-74
2021/09/20 06:34:18;;;;;;;0.55;0.55;;;;;;;5.43;88.43;100016.63;6160494;23;20023;-76
2021/09/20 06:36:44;;;;;;;1.40;1.30;;;;;;;5.44;89.17;99996.78;6185005;23;20341;-74
2021/09/20 06:39:10;;;;;;;0.90;0.90;;;;;;;5.46;88.59;100013.13;6211217;23;20048;-76
2021/09/20 06:41:36;;;;;;;1.20;1.20;;;;;;;5.47;88.24;100010.47;6135489;23;20024;-76
2021/09/20 06:44:03;;;;;;;1.05;1.05;;;;;;;5.49;89.09;100000.94;6211195;23;20066;-74
2021/09/20 06:46:56;;;;;;;0.75;0.75;;;;;;;5.54;88.95;99998.19;6184724;23;20025;-73
2021/09/20 06:49:28;;;;;;;1.05;1.05;;;;;;;5.46;88.41;100005.38;6177975;23;20047;-73
2021/09/20 06:51:54;;;;;;;1.52;1.42;;;;;;;5.39;88.40;99990.91;6211366;23;20031;-73
2021/09/20 06:54:21;;;;;;;0.98;0.98;;;;;;;5.55;88.65;100026.63;6211243;23;20017;-74
2021/09/20 06:56:47;;;;;;;1.45;1.38;;;;;;;5.58;88.93;100017.91;6185464;23;20032;-75
2021/09/20 06:59:13;;;;;;;0.47;0.47;;;;;;;5.57;89.09;100061.09;6185601;23;20766;-74
2021/09/20 07:01:40;;;;;;;0.65;0.65;;;;;;;5.62;88.73;100027.28;6211566;23;20028;-73
2021/09/20 07:04:06;;;;;;;1.23;1.23;;;;;;;5.62;88.67;100032.47;6211391;23;20056;-73
2021/09/20 07:06:32;;;;;;;1.10;1.10;;;;;;;5.62;88.81;100048.84;6211673;23;20024;-72
2021/09/20 07:08:58;;;;;;;0.90;0.90;;;;;;;5.64;89.10;100041.03;6159368;23;20047;-73
2021/09/20 07:11:25;;;;;;;1.05;1.05;;;;;;;5.65;88.91;100029.78;6211486;23;20016;-75
2021/09/20 07:13:51;;;;;;;0.60;0.60;;;;;;;5.65;89.18;100053.94;6184727;23;20021;-73
2021/09/20 07:16:17;;;;;;;0.75;0.75;;;;;;;5.66;88.01;100034.06;6210427;23;20132;-72
2021/09/20 07:18:43;;;;;;;0.88;0.88;;;;;;;5.65;88.96;100006.47;6184601;23;20139;-72
2021/09/20 07:21:12;;;;;;;0.85;0.82;;;;;;;5.66;89.18;100070.31;6184010;23;20024;-72
2021/09/20 07:23:38;;;;;;;1.80;1.67;;;;;;;5.64;89.09;100003.03;6184577;23;20016;-73
2021/09/20 07:26:04;;;;;;;1.23;1.23;;;;;;;5.64;88.80;100036.69;6184137;23;20020;-72
2021/09/20 07:28:32;;;;;;;1.08;1.08;;;;;;;5.66;88.96;100023.72;6185158;23;20038;-74
2021/09/20 07:31:01;;;;;;;1.13;1.13;;;;;;;5.69;89.56;100023.59;6210679;23;20023;-74
2021/09/20 07:33:26;;;;;;;0.80;0.80;;;;;;;5.70;89.04;100020.94;6184363;23;20017;-72
2021/09/20 07:35:52;;;;;;;0.75;0.75;;;;;;;5.66;89.28;100014.16;6184183;23;20020;-73
2021/09/20 07:38:18;;;;;;;1.35;1.25;;;;;;;5.69;88.60;100039.16;6213021;23;20016;-72
2021/09/20 07:40:44;;;;;;;1.02;1.02;;;;;;;5.69;88.41;100041.75;6212709;23;20043;-73
2021/09/20 07:43:11;;;;;;;0.65;0.65;;;;;;;5.69;88.24;100014.06;6184038;23;20016;-73
2021/09/20 07:45:38;;;;;;;1.15;1.15;;;;;;;5.68;88.31;100027.94;6184453;23;20020;-73
2021/09/20 07:48:05;;;;;;;1.00;1.00;;;;;;;5.68;89.24;100006.38;6184431;23;20040;-76
2021/09/20 07:50:31;;;;;;;0.93;0.93;;;;;;;5.72;89.81;100026.09;6159747;23;20074;-73
2021/09/20 07:52:57;;;;;;;0.50;0.50;;;;;;;5.70;89.08;100053.78;6183804;23;20443;-73
2021/09/20 07:55:23;;;;;;;0.70;0.70;;;;;;;5.65;89.23;100011.66;6214228;23;20491;-73
2021/09/20 07:57:52;;;;;;;1.20;1.20;;;;;;;5.71;89.36;100017.47;6184612;23;20125;-77
2021/09/20 08:00:18;;;;;;;1.83;1.73;;;;;;;5.71;89.36;100033.00;6159697;23;20013;-75
2021/09/20 08:02:44;;;;;;;0.65;0.65;;;;;;;5.72;89.28;100028.69;6184645;23;20028;-75
2021/09/20 08:05:14;;;;;;;0.50;0.50;;;;;;;5.74;89.06;100013.94;6186004;23;20399;-74
2021/09/20 08:07:40;;;;;;;0.90;0.90;;;;;;;5.76;88.49;100017.31;6211921;23;20100;-74
2021/09/20 08:10:07;;;;;;;0.93;0.93;;;;;;;5.75;88.92;100007.88;6209548;23;20666;-73
2021/09/20 08:12:33;;;;;;;0.88;0.88;;;;;;;5.75;89.44;100007.88;6184154;23;20444;-73
2021/09/20 08:14:59;;;;;;;0.98;0.98;;;;;;;5.75;89.82;100013.03;6209473;23;20012;-73
2021/09/20 08:17:32;;;;;;;2.63;1.98;;;;;;;5.76;89.66;100020.75;6211214;23;20021;-74
2021/09/20 08:20:05;;;;;;;0.70;0.70;;;;;;;5.74;89.52;100032.91;6184229;23;20054;-73
2021/09/20 08:22:32;;;;;;;0.68;0.68;;;;;;;5.74;89.42;100017.38;6185724;23;20074;-77
2021/09/20 08:24:59;;;;;;;0.70;0.70;;;;;;;5.72;89.45;100014.00;6135759;23;20086;-76
2021/09/20 08:27:28;;;;;;;1.23;1.13;;;;;;;5.76;89.41;100025.94;6159822;23;20016;-72
2021/09/20 08:29:54;;;;;;;1.15;1.15;;;;;;;5.75;89.36;100044.13;6210398;23;20154;-75
2021/09/20 08:36:17;;;;;;;0.88;0.88;;;;;;;5.81;89.79;100012.84;6183882;23;20494;-76
2021/09/20 08:39:03;;;;;;;0.55;0.55;;;;;;;5.69;89.55;99995.13;6160894;23;20020;-73
2021/09/20 08:41:29;;;;;;;1.15;1.15;;;;;;;5.85;89.56;100027.38;6132646;23;20020;-74
2021/09/20 08:44:14;;;;;;;0.90;0.90;;;;;;;5.82;89.78;99999.00;6210521;23;20369;-73
2021/09/20 08:47:30;;;;;;;0.98;0.98;;;;;;;5.80;89.84;100008.53;6210790;23;20157;-75
2021/09/20 08:49:57;;;;;;;0.57;0.57;;;;;;;5.83;90.04;100008.44;6184048;23;20020;-75
2021/09/20 08:52:23;;;;;;;0.60;0.60;;;;;;;5.85;89.93;100006.66;6209473;23;20023;-75
2021/09/20 08:54:51;;;;;;;0.47;0.47;;;;;;;5.82;89.72;100024.91;6158654;23;20043;-74
2021/09/20 08:57:52;;;;;;;0.70;0.70;;;;;;;5.86;89.95;100005.78;6136596;23;20470;-74
2021/09/20 09:00:40;;;;;;;0.85;0.85;;;;;;;5.87;89.66;99985.91;6209699;23;20017;-74
2021/09/20 09:03:27;;;;;;;0.90;0.90;;;;;;;5.90;89.47;100004.78;6157944;23;20071;-72
2021/09/20 09:06:42;;;;;;;0.82;0.82;;;;;;;5.91;89.80;100001.31;6182985;23;20479;-73
2021/09/20 09:09:19;;;;;;;0.60;0.60;;;;;;;5.75;89.65;99992.31;6149896;23;20047;-73
2021/09/20 09:12:25;;;;;;;1.02;1.02;;;;;;;5.97;89.69;99985.56;6125275;23;20017;-74
2021/09/20 09:14:59;;;;;;;0.82;0.82;;;;;;;5.87;89.12;100028.22;6164541;23;20024;-75
2021/09/20 09:17:53;;;;;;;0.60;0.60;;;;;;;5.95;89.68;100004.66;6187910;23;20017;-75
2021/09/20 09:20:25;;;;;;;0.73;0.73;;;;;;;5.99;89.62;100040.75;6114361;23;20043;-75
2021/09/20 09:23:12;;;;;;;0.60;0.60;;;;;;;5.99;89.83;100027.78;6118270;23;20016;-74
2021/09/20 09:25:47;;;;;;;0.70;0.70;;;;;;;5.97;89.71;100014.06;6113484;23;20443;-74
2021/09/20 09:28:28;;;;;;;0.70;0.70;;;;;;;6.05;89.26;100000.84;6113493;23;20024;-75
2021/09/20 09:31:07;;;;;;;0.65;0.65;;;;;;;6.07;89.20;100010.25;6157358;23;20016;-76
2021/09/20 09:33:38;;;;;;;0.85;0.85;;;;;;;6.09;89.59;100036.94;6112207;23;20160;-74
2021/09/20 09:36:04;;;;;;;0.70;0.70;;;;;;;6.01;89.13;99976.78;6161919;23;20055;-74
2021/09/20 09:38:37;;;;;;;0.65;0.65;;;;;;;6.15;89.17;99997.88;6212054;23;20070;-72
2021/09/20 09:41:12;;;;;;;0.90;0.90;;;;;;;6.16;89.15;100009.94;6110935;23;20071;-73
2021/09/20 09:43:42;;;;;;;1.23;1.23;;;;;;;6.14;89.14;100005.72;6137720;23;20024;-74
2021/09/20 09:46:49;;;;;;;1.20;1.20;;;;;;;6.18;88.86;100044.41;6110626;23;20494;-73
2021/09/20 09:49:46;;;;;;;1.23;1.23;;;;;;;6.14;89.64;100009.16;6062540;23;20020;-75
2021/09/20 09:52:17;;;;;;;0.80;0.80;;;;;;;6.04;88.97;100009.50;6131642;23;20194;-72
2021/09/20 09:54:43;;;;;;;1.02;1.02;;;;;;;6.06;88.85;99966.25;6089361;23;20044;-73
2021/09/20 09:57:18;;;;;;;0.70;0.70;;;;;;;6.16;89.65;100001.31;6112526;23;20025;-73
2021/09/20 10:00:16;;;;;;;1.10;1.10;;;;;;;6.13;89.87;99978.94;6122114;23;20020;-76
2021/09/20 10:02:47;;;;;;;1.40;1.40;;;;;;;6.02;90.20;99975.88;6111199;23;20395;-73
2021/09/20 10:05:40;;;;;;;2.22;1.02;;;;;;;6.19;90.15;99993.41;6111997;23;20017;-75
2021/09/20 10:08:11;;;;;;;3.17;1.38;;;;;;;6.11;90.14;100045.53;6185928;23;20024;-75
2021/09/20 10:14:57;;;;;;;0.90;0.90;;;;;;;6.23;89.71;100001.06;6186934;23;20026;-75
2021/09/20 10:18:06;;;;;;;0.82;0.82;;;;;;;6.33;89.90;99995.53;6161002;23;20108;-77
2021/09/20 10:28:25;;;;;;;1.00;1.00;;;;;;;6.27;89.65;100028.56;6043858;23;20023;-74
2021/09/20 10:35:29;;;;;;;0.88;0.88;;;;;;;6.28;90.40;100008.69;6078251;23;20109;-77
2021/09/20 10:37:59;;;;;;;0.90;0.90;;;;;;;6.31;89.46;100021.53;6100486;23;20020;-77
2021/09/20 10:44:40;;;;;;;0.90;0.90;;;;;;;6.25;90.09;99988.88;6188647;23;20025;-77
2021/09/20 10:47:15;;;;;;;1.05;1.05;;;;;;;6.39;90.06;100001.34;6184528;23;20012;-76
2021/09/20 10:49:49;;;;;;;1.38;1.38;;;;;;;6.35;89.15;99998.94;6160522;23;20024;-78
2021/09/20 10:52:25;;;;;;;0.73;0.73;;;;;;;6.32;89.89;99988.66;6114188;23;20040;-76
2021/09/20 10:55:47;;;;;;;0.90;0.90;;;;;;;6.45;90.33;99997.69;6186418;23;20444;-77
2021/09/20 10:58:37;;;;;;;0.57;0.57;;;;;;;6.44;90.35;100001.19;6048862;23;20024;-75
2021/09/20 11:01:16;;;;;;;0.85;0.82;;;;;;;6.49;89.68;100005.31;6108344;23;20056;-76
2021/09/20 11:04:11;;;;;;;0.88;0.88;;;;;;;6.52;89.91;100014.72;6183316;23;20051;-74
2021/09/20 11:06:39;;;;;;;0.55;0.55;;;;;;;6.49;90.07;100000.13;6134205;23;20104;-76
2021/09/20 11:09:08;;;;;;;1.50;1.50;;;;;;;6.53;89.66;100000.88;6086336;23;20020;-74
2021/09/20 11:11:40;;;;;;;1.15;1.15;;;;;;;6.53;89.36;100030.25;6209128;23;20031;-76
2021/09/20 11:18:00;;;;;;;0.90;0.90;;;;;;;6.48;89.99;100019.16;6184429;23;20024;-73
2021/09/20 11:21:07;;;;;;;0.60;0.60;;;;;;;6.54;89.67;100020.72;6210496;23;20356;-72
2021/09/20 11:24:28;;;;;;;0.50;0.50;;;;;;;6.51;90.13;100000.91;6188439;23;20411;-73
2021/09/20 11:26:55;;;;;;;0.65;0.65;;;;;;;6.54;90.33;100015.53;6159517;23;20021;-74
2021/09/20 11:29:47;;;;;;;2.08;1.98;;;;;;;6.54;90.06;99989.59;6209302;23;20020;-73
2021/09/20 11:32:13;;;;;;;0.85;0.85;;;;;;;6.54;89.89;100025.91;6210903;23;20016;-73
2021/09/20 11:34:48;;;;;;;1.17;1.17;;;;;;;6.55;89.74;100024.97;6210387;23;20031;-73
2021/09/20 11:37:35;;;;;;;0.43;0.43;;;;;;;6.55;89.95;100012.00;6163525;23;20020;-75
2021/09/20 11:43:31;;;;;;;1.10;1.08;;;;;;;6.54;89.92;99989.59;6163658;23;20036;-73
2021/09/20 11:46:23;;;;;;;0.88;0.88;;;;;;;6.56;89.94;100024.09;6210433;23;20021;-73
2021/09/20 11:49:16;;;;;;;0.63;0.63;;;;;;;6.57;90.03;100011.09;6186511;23;20028;-75
2021/09/20 11:52:25;;;;;;;1.25;1.25;;;;;;;6.58;90.33;100023.13;6210882;23;20063;-77
2021/09/20 11:56:11;;;;;;;0.75;0.75;;;;;;;6.35;90.38;99960.06;6003013;23;20034;-74
2021/09/20 12:02:54;;;;;;;1.50;1.50;;;;;;;6.61;90.54;100011.81;5990812;23;20028;-76
2021/09/20 12:06:06;;;;;;;0.93;0.93;;;;;;;6.63;90.62;100000.47;6089204;23;20026;-73
2021/09/20 12:09:04;;;;;;;0.80;0.80;;;;;;;6.55;90.51;99992.13;6210979;23;20360;-73
2021/09/20 12:11:30;;;;;;;0.80;0.80;;;;;;;6.60;90.27;100013.56;6184151;23;20021;-72
2021/09/20 12:13:56;;;;;;;0.50;0.50;;;;;;;6.66;90.74;100007.31;6210885;23;20015;-74
2021/09/20 12:16:24;;;;;;;0.95;0.95;;;;;;;6.67;89.91;99999.47;6182614;23;20107;-74
2021/09/20 12:18:50;;;;;;;0.93;0.93;;;;;;;6.67;90.25;100028.00;6209654;23;20056;-74
2021/09/20 12:21:16;;;;;;;1.23;1.23;;;;;;;6.68;89.63;99998.56;6211513;23;20412;-72
2021/09/20 12:23:44;;;;;;;1.10;0.90;;;;;;;6.70;89.99;100001.09;6184151;23;20020;-72
2021/09/20 12:26:11;;;;;;;1.05;1.05;;;;;;;6.71;89.58;99987.22;6210645;23;20072;-72
2021/09/20 12:28:48;;;;;;;1.13;1.08;;;;;;;6.71;89.50;100023.53;6210571;23;20445;-72
2021/09/20 12:31:50;;;;;;;0.68;0.68;;;;;;;6.71;89.58;100013.16;6183190;23;20047;-73
2021/09/20 12:34:17;;;;;;;0.82;0.82;;;;;;;6.72;89.74;100027.81;6017728;23;20502;-73
2021/09/20 12:40:36;;;;;;;0.82;0.82;;;;;;;6.69;90.58;100000.25;6210898;23;20023;-74
2021/09/20 12:43:15;;;;;;;1.13;1.13;;;;;;;6.69;90.39;100033.97;6161932;23;20032;-74
2021/09/20 12:45:44;;;;;;;0.70;0.70;;;;;;;6.70;89.83;100016.66;6137349;23;20166;-73
2021/09/20 12:48:32;;;;;;;0.75;0.75;;;;;;;6.71;89.92;100013.16;6134100;23;20107;-75
2021/09/20 12:51:07;;;;;;;1.02;1.02;;;;;;;6.71;90.50;100018.34;6184675;23;20099;-75
2021/09/20 12:53:44;;;;;;;0.77;0.77;;;;;;;6.71;90.56;100015.75;6159829;23;20487;-74
2021/09/20 12:56:36;;;;;;;0.75;0.75;;;;;;;6.71;89.95;100013.16;6161454;23;20471;-76
2021/09/20 12:59:19;;;;;;;0.88;0.88;;;;;;;6.72;89.88;100022.63;6160198;23;20472;-77
2021/09/20 13:01:58;;;;;;;1.52;1.30;;;;;;;6.71;90.04;100019.19;6159340;23;20048;-74
2021/09/20 13:04:44;;;;;;;0.75;0.75;;;;;;;6.73;89.92;100042.50;6185152;23;20411;-74
2021/09/20 13:07:14;;;;;;;0.90;0.90;;;;;;;6.62;89.86;100018.69;6186476;23;20067;-76
2021/09/20 13:09:53;;;;;;;0.70;0.70;;;;;;;6.67;89.89;99996.03;6183599;23;20021;-74
2021/09/20 13:12:20;;;;;;;1.23;1.23;;;;;;;6.65;90.39;99987.44;6183673;23;20082;-73